Time;durP1;ratioP1;P1;durP2;ratioP2;P2;SDS_P1;SDS_P2;PMS_P1;PMS_P2;Temp;Humidity;BMP_temperature;BMP_pressure;BME280_temperature;BME280_humidity;BME280_pressure;Samples;Min_cycle;Max_cycle;Signal;HPM_P1;HPM_P2
2021/04/16 00:00:40;;;;;;;2.60;1.97;;;2.60;97.30;;;;;;5022212;28;20184;-83
2021/04/16 00:03:06;;;;;;;4.03;2.27;;;2.60;97.30;;;;;;5020713;28;21116;-84
2021/04/16 00:05:32;;;;;;;2.10;2.00;;;2.50;97.30;;;;;;5020337;28;20946;-84
2021/04/16 00:07:58;;;;;;;3.40;2.13;;;2.50;97.30;;;;;;5020562;28;20463;-84
2021/04/16 00:10:33;;;;;;;2.40;2.20;;;2.50;97.30;;;;;;5018856;28;20176;-84
2021/04/16 00:13:00;;;;;;;3.57;2.20;;;2.40;97.30;;;;;;5036385;28;20415;-84
2021/04/16 00:15:28;;;;;;;3.77;2.40;;;2.40;97.30;;;;;;5019669;28;20435;-84
2021/04/16 00:17:54;;;;;;;3.83;2.17;;;2.40;97.30;;;;;;5018952;28;20426;-84
2021/04/16 00:20:23;;;;;;;4.43;2.30;;;2.40;97.30;;;;;;5037021;28;20412;-84
2021/04/16 00:22:48;;;;;;;3.70;2.50;;;2.40;97.30;;;;;;5036770;28;20474;-84
2021/04/16 00:25:19;;;;;;;6.70;2.87;;;2.40;97.30;;;;;;5019064;28;20957;-84
2021/04/16 00:27:44;;;;;;;2.13;1.90;;;2.40;97.30;;;;;;5018862;28;20204;-84
2021/04/16 00:30:11;;;;;;;7.87;2.47;;;2.40;97.30;;;;;;5018827;28;20884;-83
2021/04/16 00:32:37;;;;;;;2.03;1.93;;;2.40;97.30;;;;;;5018316;28;20246;-84
2021/04/16 00:35:06;;;;;;;3.10;2.33;;;2.40;97.30;;;;;;5018493;28;20523;-84
2021/04/16 00:37:31;;;;;;;2.70;2.07;;;2.40;97.30;;;;;;5018560;28;20425;-84
2021/04/16 00:39:57;;;;;;;4.00;2.17;;;2.40;97.30;;;;;;5017714;28;20415;-84
2021/04/16 00:42:22;;;;;;;3.13;2.47;;;2.50;97.30;;;;;;5018188;28;20210;-84
2021/04/16 00:44:48;;;;;;;4.00;2.30;;;2.50;97.30;;;;;;5017694;28;20204;-83
2021/04/16 00:47:17;;;;;;;2.60;2.17;;;2.50;97.30;;;;;;5017076;28;20279;-84
2021/04/16 00:49:46;;;;;;;4.27;2.53;;;2.50;97.30;;;;;;5017355;28;20183;-84
2021/04/16 00:52:17;;;;;;;2.83;2.20;;;2.50;97.30;;;;;;5016912;28;20445;-84
2021/04/16 00:54:43;;;;;;;3.77;2.50;;;2.60;97.30;;;;;;5016611;28;20466;-84
2021/04/16 00:57:13;;;;;;;3.40;2.10;;;2.60;97.30;;;;;;5017021;28;20415;-84
2021/04/16 00:59:49;;;;;;;3.07;2.30;;;2.60;97.30;;;;;;5017038;28;20180;-84
2021/04/16 01:02:15;;;;;;;2.63;2.27;;;2.60;97.30;;;;;;5034518;28;20423;-83
2021/04/16 01:04:40;;;;;;;5.00;2.47;;;2.60;97.30;;;;;;5016451;28;20597;-84
2021/04/16 01:07:08;;;;;;;4.27;2.43;;;2.60;97.30;;;;;;5016333;28;20661;-84
2021/04/16 01:09:33;;;;;;;4.67;2.53;;;2.60;97.30;;;;;;5016696;28;20183;-84
2021/04/16 01:12:04;;;;;;;4.40;2.90;;;2.60;97.30;;;;;;5034392;28;20486;-84
2021/04/16 01:14:30;;;;;;;4.90;2.73;;;2.60;97.30;;;;;;5016530;28;20222;-84
2021/04/16 01:16:56;;;;;;;5.57;2.83;;;2.60;97.30;;;;;;5016399;28;20486;-84
2021/04/16 01:19:30;;;;;;;3.47;2.60;;;2.60;97.30;;;;;;5017090;28;20427;-84
2021/04/16 01:22:06;;;;;;;3.83;3.00;;;2.60;97.30;;;;;;5016971;28;20652;-84
2021/04/16 01:24:33;;;;;;;7.10;3.07;;;2.60;97.30;;;;;;5016854;28;20844;-85
2021/04/16 01:27:00;;;;;;;6.27;3.30;;;2.60;97.30;;;;;;5016718;28;20535;-84
2021/04/16 01:29:26;;;;;;;8.00;3.27;;;2.60;97.30;;;;;;5016915;28;20786;-84
2021/04/16 01:31:52;;;;;;;9.70;3.40;;;2.60;97.30;;;;;;5016822;28;20423;-84
2021/04/16 01:34:26;;;;;;;4.30;3.10;;;2.60;97.30;;;;;;5034401;28;20407;-84
2021/04/16 01:36:54;;;;;;;4.10;2.50;;;2.60;97.30;;;;;;5017132;28;20506;-84
2021/04/16 01:39:21;;;;;;;3.80;2.30;;;2.60;97.30;;;;;;5035343;28;20509;-84
2021/04/16 01:41:46;;;;;;;3.73;2.87;;;2.70;97.30;;;;;;5017254;28;20423;-84
2021/04/16 01:44:22;;;;;;;4.90;3.00;;;2.70;97.30;;;;;;5036106;28;20510;-84
2021/04/16 01:46:55;;;;;;;3.03;2.60;;;2.70;97.30;;;;;;5023617;28;20246;-83
2021/04/16 01:49:22;;;;;;;9.23;3.00;;;2.60;97.30;;;;;;5056571;28;20419;-84
2021/04/16 01:51:48;;;;;;;3.07;2.60;;;2.60;97.30;;;;;;5055914;28;20819;-85
2021/04/16 01:54:36;;;;;;;4.53;3.10;;;2.60;97.30;;;;;;5038687;28;20409;-84
2021/04/16 01:57:30;;;;;;;4.20;2.87;;;2.70;97.30;;;;;;5038853;28;20422;-84
2021/04/16 01:59:56;;;;;;;4.87;2.97;;;2.70;97.30;;;;;;5035305;28;20928;-84
2021/04/16 02:02:25;;;;;;;8.97;2.90;;;2.70;97.30;;;;;;5040911;28;20421;-85
2021/04/16 02:04:52;;;;;;;8.00;2.70;;;2.70;97.30;;;;;;5051610;28;20434;-85
2021/04/16 02:07:18;;;;;;;5.90;2.90;;;2.70;97.30;;;;;;5065034;28;20540;-84
2021/04/16 02:09:44;;;;;;;2.83;2.30;;;2.80;97.30;;;;;;5038311;28;20411;-84
2021/04/16 02:12:12;;;;;;;5.33;3.20;;;2.80;97.30;;;;;;5038536;28;20418;-84
2021/04/16 02:14:38;;;;;;;3.37;2.50;;;2.80;97.30;;;;;;5057927;28;20172;-84
2021/04/16 02:17:13;;;;;;;4.40;2.73;;;2.80;97.30;;;;;;5050968;28;20425;-85
2021/04/16 02:19:39;;;;;;;3.30;2.80;;;2.80;97.30;;;;;;5050104;28;20650;-85
2021/04/16 02:22:11;;;;;;;4.37;2.80;;;2.80;97.30;;;;;;5040329;28;20422;-84
2021/04/16 02:24:37;;;;;;;3.30;2.57;;;2.80;97.30;;;;;;5036094;28;20426;-84
2021/04/16 02:27:03;;;;;;;3.30;2.70;;;2.80;97.30;;;;;;5036085;28;20835;-84
2021/04/16 02:29:29;;;;;;;7.27;2.90;;;2.80;97.30;;;;;;5036368;28;20219;-84
2021/04/16 02:31:55;;;;;;;3.30;2.60;;;2.80;97.30;;;;;;5036714;28;20414;-84
2021/04/16 02:34:28;;;;;;;3.67;2.67;;;2.80;97.30;;;;;;5036642;28;20180;-85
2021/04/16 02:36:57;;;;;;;3.73;2.30;;;2.80;97.30;;;;;;5036479;28;20175;-84
2021/04/16 02:39:23;;;;;;;3.40;2.40;;;2.80;97.30;;;;;;5055877;28;20612;-84
2021/04/16 02:41:49;;;;;;;8.33;2.90;;;2.80;97.30;;;;;;5040737;28;20492;-84
2021/04/16 02:44:16;;;;;;;4.10;2.93;;;2.90;97.30;;;;;;5041196;28;20211;-84
2021/04/16 02:46:42;;;;;;;3.50;2.70;;;2.90;97.30;;;;;;5054066;28;20985;-84
2021/04/16 02:49:08;;;;;;;4.33;3.07;;;2.90;97.30;;;;;;5020821;28;20407;-83
2021/04/16 02:51:34;;;;;;;5.07;3.10;;;2.90;97.30;;;;;;5020930;28;20951;-84
2021/04/16 02:54:00;;;;;;;5.10;2.87;;;2.90;97.30;;;;;;5020296;28;20490;-85
2021/04/16 02:56:26;;;;;;;6.63;3.20;;;2.90;97.30;;;;;;5020165;28;20511;-84
2021/04/16 02:58:53;;;;;;;3.40;2.90;;;3.00;97.30;;;;;;5019518;28;20183;-84
2021/04/16 03:01:19;;;;;;;3.67;2.73;;;3.00;97.30;;;;;;5019173;28;20415;-85
2021/04/16 03:03:45;;;;;;;5.03;3.00;;;3.00;97.30;;;;;;5019439;28;20414;-84
2021/04/16 03:06:10;;;;;;;4.07;2.97;;;3.00;97.30;;;;;;5019638;28;20451;-84
2021/04/16 03:08:36;;;;;;;11.20;3.40;;;3.00;97.30;;;;;;5019825;28;20415;-83
2021/04/16 03:11:05;;;;;;;8.87;2.90;;;3.00;97.30;;;;;;5019462;28;20411;-84
2021/04/16 03:13:30;;;;;;;3.90;2.73;;;3.00;97.30;;;;;;5036643;28;20816;-84
2021/04/16 03:15:56;;;;;;;4.50;3.10;;;3.00;97.30;;;;;;5036311;28;20427;-84
2021/04/16 03:18:22;;;;;;;5.77;2.90;;;3.00;97.30;;;;;;5018987;28;20259;-83
2021/04/16 03:20:47;;;;;;;5.90;3.30;;;3.00;97.30;;;;;;5019218;28;20558;-84
2021/04/16 03:23:13;;;;;;;7.27;2.97;;;3.00;97.30;;;;;;5018818;28;20211;-84
2021/04/16 03:25:39;;;;;;;4.90;3.20;;;3.00;97.30;;;;;;5019028;28;20192;-84
2021/04/16 03:28:05;;;;;;;7.23;2.90;;;3.00;97.30;;;;;;5018616;28;20234;-85
2021/04/16 03:30:32;;;;;;;5.93;3.27;;;3.00;97.30;;;;;;5018515;28;20423;-85
2021/04/16 03:32:58;;;;;;;5.00;3.10;;;3.00;97.30;;;;;;5018347;28;20189;-84
2021/04/16 03:35:24;;;;;;;6.80;3.23;;;2.90;97.30;;;;;;5018504;28;20426;-84
2021/04/16 03:37:50;;;;;;;4.13;2.90;;;2.90;97.30;;;;;;5018620;28;20176;-84
2021/04/16 03:40:18;;;;;;;3.50;2.70;;;2.90;97.30;;;;;;5018259;28;20589;-85
2021/04/16 03:42:44;;;;;;;5.20;3.33;;;2.90;97.30;;;;;;5018951;28;20179;-84
2021/04/16 03:45:13;;;;;;;4.97;2.87;;;2.80;97.30;;;;;;5019341;28;20546;-85
2021/04/16 03:47:39;;;;;;;4.37;2.80;;;2.80;97.30;;;;;;5018271;28;20215;-84
2021/04/16 03:50:05;;;;;;;3.83;2.60;;;2.80;97.30;;;;;;5035797;28;20407;-84
2021/04/16 03:52:31;;;;;;;3.70;2.80;;;2.80;97.30;;;;;;5017328;28;20191;-84
2021/04/16 03:54:56;;;;;;;3.30;2.70;;;2.70;97.30;;;;;;5019543;28;20668;-85
2021/04/16 03:57:22;;;;;;;6.80;2.80;;;2.70;97.30;;;;;;5037863;28;20177;-85
2021/04/16 03:59:48;;;;;;;5.93;3.13;;;2.70;97.30;;;;;;5019821;28;20180;-84
2021/04/16 04:02:14;;;;;;;10.13;3.20;;;2.70;97.30;;;;;;5019696;28;20187;-84
2021/04/16 04:04:39;;;;;;;4.30;2.60;;;2.70;97.30;;;;;;5019445;28;20418;-84
2021/04/16 04:07:05;;;;;;;4.03;2.43;;;2.70;97.30;;;;;;5019922;28;20717;-84
2021/04/16 04:09:32;;;;;;;6.33;2.87;;;2.70;97.30;;;;;;5020481;28;20271;-84
2021/04/16 04:11:58;;;;;;;3.40;2.40;;;2.70;97.30;;;;;;5019592;28;20501;-84
2021/04/16 04:14:23;;;;;;;5.17;2.70;;;2.70;97.30;;;;;;5019567;28;20416;-84
2021/04/16 04:16:58;;;;;;;8.53;4.00;;;2.70;97.30;;;;;;5019078;28;20181;-84
2021/04/16 04:19:25;;;;;;;5.77;2.77;;;2.70;97.30;;;;;;5019237;28;20214;-84
2021/04/16 04:21:52;;;;;;;7.60;2.57;;;2.70;97.30;;;;;;5019181;28;20426;-84
2021/04/16 04:24:19;;;;;;;4.10;2.63;;;2.70;97.30;;;;;;5019723;28;20486;-84
2021/04/16 04:26:46;;;;;;;9.97;3.00;;;2.60;97.30;;;;;;5018991;28;20526;-84
2021/04/16 04:29:12;;;;;;;7.10;3.73;;;2.70;97.30;;;;;;5019383;28;20415;-83
2021/04/16 04:31:46;;;;;;;6.70;3.37;;;2.70;97.30;;;;;;5019714;28;20422;-84
2021/04/16 04:34:17;;;;;;;7.60;3.77;;;2.70;97.30;;;;;;5019644;28;20421;-84
2021/04/16 04:36:43;;;;;;;4.70;3.63;;;2.70;97.30;;;;;;5020532;28;20953;-84
2021/04/16 04:39:09;;;;;;;6.13;2.80;;;2.70;97.30;;;;;;5036691;28;20419;-84
2021/04/16 04:41:34;;;;;;;5.20;2.90;;;2.70;97.30;;;;;;5018112;28;20230;-84
2021/04/16 04:44:00;;;;;;;6.30;3.00;;;2.70;97.30;;;;;;5017879;28;20188;-84
2021/04/16 04:46:26;;;;;;;6.77;2.90;;;2.70;97.30;;;;;;5038884;28;20251;-84
2021/04/16 04:48:51;;;;;;;7.33;3.17;;;2.80;97.30;;;;;;5039459;28;20218;-84
2021/04/16 04:51:18;;;;;;;5.70;2.73;;;2.80;97.30;;;;;;5056405;28;20275;-84
2021/04/16 04:53:43;;;;;;;4.93;2.97;;;2.80;97.30;;;;;;5037657;28;20172;-84
2021/04/16 04:56:09;;;;;;;6.23;3.00;;;2.90;97.30;;;;;;5037615;28;20434;-84
2021/04/16 04:58:34;;;;;;;6.47;2.67;;;2.90;97.30;;;;;;5037829;28;20180;-83
2021/04/16 05:01:00;;;;;;;4.83;2.73;;;3.00;97.30;;;;;;5037451;28;20287;-84
2021/04/16 05:03:25;;;;;;;4.37;2.67;;;3.00;97.30;;;;;;5037608;28;20179;-83
2021/04/16 05:05:51;;;;;;;9.20;3.30;;;3.00;97.30;;;;;;5038023;28;20214;-84
2021/04/16 05:08:17;;;;;;;14.27;3.50;;;3.10;97.30;;;;;;5056039;28;20230;-83
2021/04/16 05:10:42;;;;;;;4.63;3.70;;;3.10;97.30;;;;;;5037526;28;20176;-84
2021/04/16 05:13:08;;;;;;;6.73;2.57;;;3.10;97.30;;;;;;5037100;28;20229;-84
2021/04/16 05:15:33;;;;;;;5.80;3.53;;;3.20;97.30;;;;;;5037836;28;20708;-84
2021/04/16 05:17:59;;;;;;;5.03;3.10;;;3.20;97.30;;;;;;5037705;28;20187;-84
2021/04/16 05:20:25;;;;;;;6.50;2.97;;;3.20;97.30;;;;;;5037624;28;20180;-83
2021/04/16 05:22:51;;;;;;;5.23;3.00;;;3.20;97.30;;;;;;5038683;28;20422;-84
2021/04/16 05:25:17;;;;;;;4.23;3.40;;;3.30;97.30;;;;;;5055768;28;20686;-84
2021/04/16 05:27:42;;;;;;;4.53;3.03;;;3.40;97.30;;;;;;5037943;28;20246;-84
2021/04/16 05:30:09;;;;;;;4.97;2.90;;;3.40;97.30;;;;;;5037332;28;21020;-84
2021/04/16 05:32:35;;;;;;;6.50;2.83;;;3.40;97.30;;;;;;5037303;28;20175;-85
2021/04/16 05:35:02;;;;;;;7.73;3.37;;;3.50;97.30;;;;;;5036939;28;20450;-84
2021/04/16 05:37:27;;;;;;;13.60;3.17;;;3.50;97.30;;;;;;5054828;28;20532;-84
2021/04/16 05:39:53;;;;;;;4.90;3.03;;;3.50;97.30;;;;;;5036564;28;20643;-84
2021/04/16 05:42:19;;;;;;;3.90;2.40;;;3.60;97.30;;;;;;5037130;28;20176;-85
2021/04/16 05:44:45;;;;;;;4.20;2.33;;;3.60;97.30;;;;;;5036650;28;20211;-84
2021/04/16 05:47:11;;;;;;;6.13;3.20;;;3.60;97.30;;;;;;5036764;28;20484;-84
2021/04/16 05:49:39;;;;;;;5.13;2.60;;;3.60;97.30;;;;;;5055089;28;20219;-84
2021/04/16 05:52:04;;;;;;;3.83;2.80;;;3.70;97.30;;;;;;5036850;28;20182;-85
2021/04/16 05:54:30;;;;;;;4.83;2.50;;;3.70;97.30;;;;;;5041579;28;20415;-85
2021/04/16 05:56:56;;;;;;;4.20;2.73;;;3.80;97.30;;;;;;5053156;28;20168;-85
2021/04/16 05:59:21;;;;;;;6.97;3.10;;;3.80;97.30;;;;;;5062222;28;20210;-86
2021/04/16 06:01:47;;;;;;;5.20;2.70;;;3.90;97.30;;;;;;5036016;28;20669;-85
2021/04/16 06:04:20;;;;;;;4.97;2.60;;;3.90;97.30;;;;;;5054765;28;20185;-84
2021/04/16 06:06:46;;;;;;;5.90;3.00;;;3.90;97.30;;;;;;5042057;28;20265;-84
2021/04/16 06:09:13;;;;;;;4.53;2.40;;;4.00;97.30;;;;;;5053042;28;20464;-87
2021/04/16 06:11:39;;;;;;;4.20;2.73;;;4.00;97.30;;;;;;5052306;28;20436;-87
2021/04/16 06:14:05;;;;;;;4.73;3.00;;;4.00;97.30;;;;;;5037748;28;20992;-85
2021/04/16 06:16:32;;;;;;;3.67;2.60;;;4.00;97.30;;;;;;5035120;28;20286;-85
2021/04/16 06:18:57;;;;;;;6.30;3.60;;;3.90;97.30;;;;;;5034656;28;20411;-84
2021/04/16 06:21:23;;;;;;;8.00;3.20;;;3.90;97.30;;;;;;5035389;28;20403;-84
2021/04/16 06:23:49;;;;;;;5.37;2.80;;;4.00;97.30;;;;;;5035210;28;20168;-85
2021/04/16 06:26:15;;;;;;;4.63;2.90;;;3.90;97.30;;;;;;5035174;28;20188;-85
2021/04/16 06:28:40;;;;;;;6.10;3.17;;;3.90;97.30;;;;;;5034678;28;20241;-85
2021/04/16 06:31:06;;;;;;;6.73;2.77;;;3.90;97.30;;;;;;5067631;28;20175;-85
2021/04/16 06:33:34;;;;;;;7.77;2.93;;;4.00;97.30;;;;;;5036384;28;20551;-84
2021/04/16 06:36:03;;;;;;;3.93;3.03;;;4.00;97.30;;;;;;5054653;28;20191;-85
2021/04/16 06:38:35;;;;;;;4.27;2.83;;;3.90;97.30;;;;;;5036523;28;20422;-85
2021/04/16 06:41:04;;;;;;;8.80;3.10;;;3.90;97.30;;;;;;5036509;28;20445;-85
2021/04/16 06:43:51;;;;;;;8.20;3.00;;;4.00;97.30;;;;;;5037055;28;20418;-85
2021/04/16 06:46:34;;;;;;;4.33;2.97;;;4.00;97.30;;;;;;5035282;28;20461;-84
2021/04/16 06:49:04;;;;;;;7.10;3.40;;;4.10;97.30;;;;;;5017083;28;20426;-84
2021/04/16 06:51:32;;;;;;;5.80;2.80;;;4.20;97.30;;;;;;5017019;28;20443;-85
2021/04/16 06:54:05;;;;;;;5.63;3.10;;;4.20;97.30;;;;;;5017119;28;20862;-85
2021/04/16 06:56:44;;;;;;;6.87;2.83;;;4.10;97.30;;;;;;5017256;28;20431;-84
2021/04/16 06:59:18;;;;;;;6.13;3.07;;;4.10;97.30;;;;;;5016974;28;20419;-84
2021/04/16 07:02:06;;;;;;;7.47;3.83;;;4.20;97.30;;;;;;5016599;28;20485;-85
2021/04/16 07:04:50;;;;;;;6.80;3.23;;;4.10;97.30;;;;;;5017385;28;20415;-85
2021/04/16 07:07:42;;;;;;;4.87;2.83;;;4.10;97.30;;;;;;5017232;28;20517;-85
2021/04/16 07:10:18;;;;;;;5.63;2.90;;;4.00;97.30;;;;;;5016740;28;20419;-84
2021/04/16 07:12:45;;;;;;;5.87;3.00;;;4.10;97.30;;;;;;5016993;28;20451;-85
2021/04/16 07:15:17;;;;;;;7.77;2.80;;;4.10;97.30;;;;;;5016324;28;20445;-85
2021/04/16 07:17:45;;;;;;;8.30;3.10;;;4.20;97.30;;;;;;5015606;28;20423;-85
2021/04/16 07:20:17;;;;;;;9.63;2.97;;;4.20;97.30;;;;;;5015461;28;20882;-85
2021/04/16 07:22:49;;;;;;;5.77;2.87;;;4.30;97.30;;;;;;5015909;28;20513;-86
2021/04/16 07:25:25;;;;;;;7.17;2.93;;;4.30;97.30;;;;;;5015370;28;20438;-84
2021/04/16 07:27:56;;;;;;;5.60;2.80;;;4.40;97.30;;;;;;5018792;28;20825;-85
2021/04/16 07:30:30;;;;;;;3.87;2.70;;;4.40;97.30;;;;;;5019552;28;20797;-86
2021/04/16 07:32:59;;;;;;;5.00;2.57;;;4.30;97.30;;;;;;5019051;28;20418;-86
2021/04/16 07:35:25;;;;;;;8.30;3.43;;;4.40;97.30;;;;;;5019798;28;20449;-84
2021/04/16 07:38:14;;;;;;;5.70;3.00;;;4.40;97.30;;;;;;5019072;28;20423;-85
2021/04/16 07:40:45;;;;;;;5.07;2.90;;;4.50;97.30;;;;;;5019519;28;20318;-85
2021/04/16 07:43:34;;;;;;;5.90;2.70;;;4.60;97.30;;;;;;5011371;28;20802;-83
2021/04/16 07:46:00;;;;;;;5.37;3.10;;;4.60;97.30;;;;;;5036257;28;20565;-84
2021/04/16 07:48:33;;;;;;;7.77;4.00;;;4.70;97.30;;;;;;5037361;28;20549;-82
2021/04/16 07:51:09;;;;;;;3.33;2.50;;;4.70;97.30;;;;;;5038694;28;20627;-85
2021/04/16 07:53:37;;;;;;;2.90;2.30;;;4.80;97.30;;;;;;5038987;28;20886;-85
2021/04/16 07:56:06;;;;;;;4.57;2.73;;;4.90;97.30;;;;;;5038152;28;20442;-84
2021/04/16 07:58:32;;;;;;;3.90;2.67;;;5.00;97.30;;;;;;5056705;28;20429;-85
2021/04/16 08:01:10;;;;;;;7.17;2.70;;;5.10;97.30;;;;;;5056681;28;21009;-85
2021/04/16 08:03:46;;;;;;;3.30;2.47;;;5.10;97.30;;;;;;5038847;28;20776;-85
2021/04/16 08:06:33;;;;;;;4.27;2.90;;;5.10;97.30;;;;;;5055492;28;20924;-85
2021/04/16 08:09:00;;;;;;;4.43;2.20;;;5.10;97.30;;;;;;5037415;28;20445;-84
2021/04/16 08:11:32;;;;;;;6.03;2.67;;;5.10;97.30;;;;;;5037152;28;20414;-84
2021/04/16 08:14:04;;;;;;;7.10;2.77;;;5.20;97.30;;;;;;5037251;28;21009;-84
2021/04/16 08:16:38;;;;;;;5.37;2.53;;;5.20;97.30;;;;;;5037457;28;20811;-84
2021/04/16 08:19:06;;;;;;;7.27;2.97;;;5.30;97.30;;;;;;5036904;28;20415;-84
2021/04/16 08:21:37;;;;;;;6.77;2.80;;;5.30;97.30;;;;;;5036856;28;20954;-85
2021/04/16 08:24:27;;;;;;;4.23;3.20;;;5.30;97.30;;;;;;5036795;28;20457;-81
2021/04/16 08:27:12;;;;;;;4.20;2.50;;;5.40;97.30;;;;;;5037087;28;20549;-85
2021/04/16 08:29:46;;;;;;;5.37;3.17;;;5.40;97.30;;;;;;5038035;28;20440;-85
2021/04/16 08:32:36;;;;;;;6.40;2.90;;;5.40;97.30;;;;;;5038126;28;20422;-84
2021/04/16 08:35:25;;;;;;;5.10;3.17;;;5.50;97.30;;;;;;5038444;28;20823;-84
2021/04/16 08:38:19;;;;;;;8.83;2.90;;;5.50;97.30;;;;;;5023116;28;20505;-84
2021/04/16 08:40:55;;;;;;;4.97;2.53;;;5.60;97.30;;;;;;5034136;28;20425;-85
2021/04/16 08:43:43;;;;;;;4.27;2.60;;;5.60;97.30;;;;;;5037544;28;20453;-85
2021/04/16 08:46:36;;;;;;;6.33;3.30;;;5.60;97.30;;;;;;5037548;28;20841;-84
2021/04/16 08:49:24;;;;;;;4.90;2.50;;;5.80;97.30;;;;;;4998032;28;20420;-84
2021/04/16 08:51:58;;;;;;;4.23;2.87;;;5.90;97.30;;;;;;4997890;28;20409;-84
2021/04/16 08:54:27;;;;;;;6.93;2.80;;;6.10;97.30;;;;;;4998006;28;20491;-85
2021/04/16 08:57:14;;;;;;;3.70;2.60;;;6.20;97.30;;;;;;4997861;28;20428;-85
2021/04/16 08:59:54;;;;;;;4.60;3.07;;;6.20;97.30;;;;;;4997752;28;20506;-85
2021/04/16 09:02:27;;;;;;;2.67;2.50;;;6.10;97.30;;;;;;4997875;28;20416;-85
2021/04/16 09:05:02;;;;;;;3.70;2.83;;;6.20;97.30;;;;;;4997744;28;20432;-83
2021/04/16 09:07:43;;;;;;;11.50;2.43;;;6.20;97.30;;;;;;4997841;28;20487;-85
2021/04/16 09:10:15;;;;;;;9.80;2.80;;;6.20;97.30;;;;;;5015266;28;20415;-86
2021/04/16 09:12:40;;;;;;;6.30;2.90;;;6.20;97.30;;;;;;4998034;28;20428;-84
2021/04/16 09:15:18;;;;;;;5.90;2.63;;;6.20;97.30;;;;;;4998475;28;20436;-85
2021/04/16 09:17:53;;;;;;;4.20;2.70;;;6.20;97.30;;;;;;4999298;28;20533;-85
2021/04/16 09:20:24;;;;;;;6.87;2.80;;;6.20;97.30;;;;;;4998597;28;20474;-84
2021/04/16 09:22:52;;;;;;;5.77;3.33;;;6.20;97.30;;;;;;4998925;28;20424;-86
2021/04/16 09:25:43;;;;;;;6.03;2.67;;;6.20;97.30;;;;;;4999272;28;20786;-85
2021/04/16 09:28:21;;;;;;;5.67;2.90;;;6.20;97.30;;;;;;4999703;28;20459;-83
2021/04/16 09:31:07;;;;;;;7.43;3.07;;;6.20;97.30;;;;;;5016907;28;20483;-85
2021/04/16 09:33:36;;;;;;;4.80;2.80;;;6.30;97.30;;;;;;4985319;28;20486;-86
2021/04/16 09:36:07;;;;;;;5.20;2.97;;;6.30;97.30;;;;;;4998532;28;20475;-85
2021/04/16 09:39:12;;;;;;;5.00;2.90;;;6.30;97.30;;;;;;4999179;28;20424;-85
2021/04/16 09:41:39;;;;;;;10.17;2.70;;;6.40;97.30;;;;;;5000122;28;20802;-85
2021/04/16 09:44:26;;;;;;;5.10;3.13;;;6.40;97.30;;;;;;4999689;28;20451;-85
2021/04/16 09:46:52;;;;;;;6.80;3.10;;;6.50;97.30;;;;;;5058240;23;20490;-87
2021/04/16 09:49:23;;;;;;;4.50;2.27;;;6.50;97.10;;;;;;5054426;28;20426;-85
2021/04/16 09:51:50;;;;;;;6.43;2.53;;;6.50;97.10;;;;;;5016860;28;20239;-85
2021/04/16 09:54:15;;;;;;;4.17;2.73;;;6.60;97.30;;;;;;5016615;28;20415;-85
2021/04/16 09:57:04;;;;;;;3.30;2.80;;;6.60;96.50;;;;;;5004310;28;20493;-86
2021/04/16 09:59:29;;;;;;;5.60;3.00;;;6.70;97.20;;;;;;4996274;28;20177;-83
2021/04/16 10:02:13;;;;;;;5.43;2.73;;;6.70;97.30;;;;;;4996090;28;20436;-85
2021/04/16 10:05:02;;;;;;;4.27;2.87;;;6.80;97.00;;;;;;4995807;28;20181;-85
2021/04/16 10:07:53;;;;;;;4.20;2.60;;;6.90;97.30;;;;;;5012718;28;20506;-83
2021/04/16 10:10:31;;;;;;;4.47;2.40;;;7.00;96.80;;;;;;4995028;28;20431;-83
2021/04/16 10:13:21;;;;;;;2.90;2.53;;;7.20;97.20;;;;;;4995383;28;20472;-83
2021/04/16 10:15:56;;;;;;;8.67;3.47;;;7.40;97.10;;;;;;5012737;28;20428;-85
2021/04/16 10:18:39;;;;;;;3.97;2.77;;;7.50;96.00;;;;;;4994820;28;20418;-83
2021/04/16 10:21:17;;;;;;;3.90;2.50;;;7.50;94.90;;;;;;5012352;28;20495;-83
2021/04/16 10:25:02;;;;;;;5.27;3.00;;;7.60;94.10;;;;;;4995123;28;21064;-83
2021/04/16 10:49:13;;;;;;;3.00;2.20;;;8.60;93.00;;;;;;5034443;28;21065;-83
2021/04/16 10:52:01;;;;;;;5.53;2.70;;;8.70;92.50;;;;;;5051312;28;20426;-83
2021/04/16 12:38:33;;;;;;;7.33;2.60;;;9.90;88.30;;;;;;4985440;28;20781;-69
2021/04/16 12:41:00;;;;;;;4.70;2.90;;;9.90;88.00;;;;;;4970488;28;20848;-68
2021/04/16 12:43:27;;;;;;;7.50;2.90;;;9.90;87.60;;;;;;4984676;28;20407;-68
2021/04/16 12:45:55;;;;;;;3.80;2.80;;;10.00;87.30;;;;;;4977320;28;20418;-68
2021/04/16 12:48:24;;;;;;;7.00;2.80;;;10.10;87.30;;;;;;4988634;28;20489;-68
2021/04/16 12:50:50;;;;;;;7.53;3.30;;;10.10;85.50;;;;;;4981934;28;20437;-68
2021/04/16 12:53:15;;;;;;;3.87;2.23;;;10.00;84.80;;;;;;4982532;28;20406;-68
2021/04/16 12:55:41;;;;;;;3.83;2.60;;;10.00;84.60;;;;;;4983730;28;20993;-69
2021/04/16 12:58:35;;;;;;;4.23;2.47;;;10.00;84.70;;;;;;4982302;28;20266;-70
2021/04/16 13:01:02;;;;;;;5.03;2.10;;;10.00;84.50;;;;;;4963571;28;20441;-71
2021/04/16 13:03:36;;;;;;;7.93;2.13;;;10.10;85.60;;;;;;4975203;28;20929;-71
2021/04/16 13:06:04;;;;;;;4.73;2.33;;;10.20;85.90;;;;;;4968113;28;20463;-72
2021/04/16 13:08:30;;;;;;;5.07;3.00;;;10.30;84.20;;;;;;4961136;28;20461;-71
2021/04/16 13:10:56;;;;;;;4.47;2.70;;;10.30;84.50;;;;;;4956417;28;20461;-70
2021/04/16 13:13:22;;;;;;;4.33;2.60;;;10.40;84.20;;;;;;4988090;28;20437;-70
2021/04/16 13:15:48;;;;;;;3.00;2.13;;;10.50;86.30;;;;;;4988539;28;20261;-71
2021/04/16 13:18:34;;;;;;;6.80;2.47;;;10.60;84.90;;;;;;4963972;28;20190;-70
2021/04/16 13:21:00;;;;;;;4.10;2.27;;;10.80;84.60;;;;;;4969094;28;20470;-69
2021/04/16 13:23:26;;;;;;;3.40;2.43;;;10.90;83.60;;;;;;4974630;28;20425;-68
2021/04/16 13:25:51;;;;;;;5.07;2.37;;;11.00;83.70;;;;;;4990959;28;21006;-69
2021/04/16 13:28:18;;;;;;;4.77;2.83;;;11.00;82.20;;;;;;4980770;28;20189;-69
2021/04/16 13:30:53;;;;;;;2.80;2.57;;;11.10;82.70;;;;;;4983593;28;20260;-69
2021/04/16 13:33:20;;;;;;;5.63;2.90;;;11.10;83.00;;;;;;4985859;28;20929;-71
2021/04/16 13:35:55;;;;;;;2.90;2.00;;;11.20;83.10;;;;;;4979044;28;20410;-70
2021/04/16 13:38:27;;;;;;;3.77;2.00;;;11.20;80.60;;;;;;4980879;28;20173;-70
2021/04/16 13:40:53;;;;;;;3.93;2.27;;;11.10;80.90;;;;;;4978750;28;20481;-70
2021/04/16 13:43:19;;;;;;;6.17;2.87;;;11.00;80.40;;;;;;4958619;28;20425;-70
2021/04/16 13:45:45;;;;;;;5.60;3.33;;;11.00;81.30;;;;;;4974835;28;20980;-70
2021/04/16 13:48:12;;;;;;;4.10;2.60;;;11.00;82.60;;;;;;4957257;28;20446;-70
2021/04/16 13:50:38;;;;;;;5.13;2.60;;;11.10;83.60;;;;;;4987484;28;20194;-70
2021/04/16 13:53:05;;;;;;;5.53;3.33;;;11.10;84.30;;;;;;4968728;28;20471;-70
2021/04/16 13:55:30;;;;;;;3.97;2.43;;;10.90;84.50;;;;;;4990340;28;20496;-70
2021/04/16 13:58:06;;;;;;;7.07;3.90;;;10.70;85.20;;;;;;4987681;28;20845;-69
2021/04/16 14:00:40;;;;;;;12.40;5.10;;;10.60;85.50;;;;;;4964631;28;20516;-70
2021/04/16 14:03:25;;;;;;;6.63;3.03;;;10.40;85.20;;;;;;4982948;28;20417;-71
2021/04/16 14:05:52;;;;;;;3.50;2.43;;;10.30;86.40;;;;;;4990527;28;20484;-70
2021/04/16 14:08:34;;;;;;;4.97;3.07;;;10.30;86.80;;;;;;4987794;28;20449;-70
2021/04/16 14:11:01;;;;;;;8.27;4.33;;;10.20;85.70;;;;;;4967076;28;20457;-69
2021/04/16 14:13:28;;;;;;;5.10;3.00;;;10.20;86.40;;;;;;4981887;28;20981;-70
2021/04/16 14:16:08;;;;;;;6.90;2.60;;;10.10;86.20;;;;;;4961627;28;20418;-71
2021/04/16 14:18:42;;;;;;;5.53;2.90;;;10.20;87.50;;;;;;4972628;28;20444;-71
2021/04/16 14:21:13;;;;;;;3.53;2.83;;;10.20;86.90;;;;;;4974569;28;20449;-71
2021/04/16 14:23:39;;;;;;;4.00;2.83;;;10.30;87.70;;;;;;4991742;28;20470;-70
2021/04/16 14:26:06;;;;;;;3.70;2.67;;;10.20;85.70;;;;;;4991969;28;20468;-70
2021/04/16 14:28:32;;;;;;;8.97;4.23;;;10.20;85.80;;;;;;4990544;28;20469;-70
2021/04/16 14:30:58;;;;;;;4.63;2.77;;;10.20;85.90;;;;;;4991540;28;20527;-70
2021/04/16 14:33:29;;;;;;;8.53;2.80;;;10.20;85.00;;;;;;4974181;28;20174;-70
2021/04/16 14:35:56;;;;;;;5.30;2.70;;;10.20;84.60;;;;;;4967636;28;20181;-71
2021/04/16 14:38:23;;;;;;;16.90;3.57;;;10.10;83.80;;;;;;4970510;28;20952;-70
2021/04/16 14:40:49;;;;;;;5.00;2.70;;;10.10;84.10;;;;;;4983058;28;20443;-70
2021/04/16 14:43:16;;;;;;;4.23;2.50;;;10.10;85.00;;;;;;4974468;28;20417;-71
2021/04/16 14:45:45;;;;;;;7.23;2.50;;;10.10;84.80;;;;;;4966844;28;20174;-71
2021/04/16 14:48:11;;;;;;;8.63;2.67;;;10.10;83.60;;;;;;4985168;28;20457;-70
2021/04/16 14:50:37;;;;;;;6.50;3.80;;;10.10;84.50;;;;;;4967246;28;20528;-70
2021/04/16 14:53:11;;;;;;;4.77;2.60;;;10.00;84.70;;;;;;4966161;28;20492;-70
2021/04/16 14:55:37;;;;;;;3.57;2.23;;;9.90;84.80;;;;;;4992942;28;20165;-69
2021/04/16 14:58:05;;;;;;;4.07;3.00;;;9.90;84.20;;;;;;4974189;28;20424;-70
2021/04/16 15:00:35;;;;;;;5.20;2.70;;;9.80;84.70;;;;;;4973431;28;20937;-70
2021/04/16 15:03:01;;;;;;;3.80;2.60;;;9.90;85.40;;;;;;4991222;28;20909;-70
2021/04/16 15:05:27;;;;;;;4.53;2.50;;;9.80;85.00;;;;;;4974567;28;20984;-70
2021/04/16 15:08:02;;;;;;;7.73;3.00;;;9.80;85.90;;;;;;4984213;28;20480;-70
2021/04/16 15:10:36;;;;;;;8.00;2.87;;;9.80;86.00;;;;;;4991121;28;20178;-70
2021/04/16 15:13:02;;;;;;;4.27;2.90;;;9.80;86.30;;;;;;4991061;28;20483;-69
2021/04/16 15:15:37;;;;;;;6.73;2.80;;;9.80;86.00;;;;;;4989477;28;20417;-70
2021/04/16 15:18:08;;;;;;;6.97;3.10;;;9.80;85.00;;;;;;4973962;28;20417;-70